Time;durP1;ratioP1;P1;durP2;ratioP2;P2;SDS_P1;SDS_P2;PMS_P1;PMS_P2;Temp;Humidity;BMP_temperature;BMP_pressure;BME280_temperature;BME280_humidity;BME280_pressure;Samples;Min_cycle;Max_cycle;Signal;HPM_P1;HPM_P2
2022/08/03 00:01:42;;;;;;;;;;;;;;;19.53;65.98;101131.28;5065831;28;19924;-90
2022/08/03 00:04:08;;;;;;;;;;;;;;;19.53;66.13;101135.72;5049097;28;20326;-89
2022/08/03 00:06:34;;;;;;;;;;;;;;;19.52;66.22;101136.66;5064836;28;19935;-89
2022/08/03 00:08:59;;;;;;;;;;;;;;;19.49;66.32;101132.38;5081056;28;19908;-89
2022/08/03 00:11:25;;;;;;;;;;;;;;;19.47;66.43;101128.13;5082741;28;19966;-89
2022/08/03 00:13:51;;;;;;;;;;;;;;;19.45;66.38;101122.94;5065342;28;19920;-90
2022/08/03 00:16:16;;;;;;;;;;;;;;;19.46;66.34;101118.53;5083427;28;19935;-89
2022/08/03 00:18:42;;;;;;;;;;;;;;;19.46;66.09;101121.16;5081724;28;19984;-89
2022/08/03 00:21:07;;;;;;;;;;;;;;;19.43;66.03;101121.34;5057467;28;20036;-89
2022/08/03 00:23:33;;;;;;;;;;;;;;;19.42;65.95;101123.09;5065091;28;19931;-90
2022/08/03 00:25:58;;;;;;;;;;;;;;;19.41;66.04;101120.53;5064490;28;20552;-89
2022/08/03 00:28:24;;;;;;;;;;;;;;;19.38;66.40;101118.06;5080510;28;19928;-90
2022/08/03 00:30:49;;;;;;;;;;;;;;;19.38;66.22;101118.91;5078212;28;20769;-89
2022/08/03 00:33:14;;;;;;;;;;;;;;;19.38;66.19;101112.78;5092058;28;20006;-91
2022/08/03 00:35:40;;;;;;;;;;;;;;;19.35;65.94;101112.94;5081632;28;20302;-91
2022/08/03 00:38:08;;;;;;;;;;;;;;;19.35;66.11;101107.69;5084763;28;19932;-90
2022/08/03 00:40:33;;;;;;;;;;;;;;;19.35;65.94;101111.16;5086186;28;19920;-90
2022/08/03 00:43:00;;;;;;;;;;;;;;;19.35;65.96;101105.91;5068273;28;20010;-91
2022/08/03 00:45:27;;;;;;;;;;;;;;;19.34;65.70;101108.63;5077362;28;20017;-90
2022/08/03 00:47:52;;;;;;;;;;;;;;;19.32;65.82;101105.19;5068899;28;19908;-90
2022/08/03 00:50:18;;;;;;;;;;;;;;;19.29;65.96;101108.84;5061564;28;19928;-91
2022/08/03 00:52:44;;;;;;;;;;;;;;;19.31;66.02;101108.78;5065961;28;19975;-90
2022/08/03 00:55:10;;;;;;;;;;;;;;;19.32;65.88;101111.34;5083022;28;19916;-89
2022/08/03 00:57:35;;;;;;;;;;;;;;;19.29;66.06;101105.38;5060412;28;19928;-89
2022/08/03 01:00:01;;;;;;;;;;;;;;;19.28;66.09;101108.91;5077038;28;19928;-90
2022/08/03 01:02:27;;;;;;;;;;;;;;;19.27;65.96;101105.44;5076391;28;19924;-89
2022/08/03 01:04:52;;;;;;;;;;;;;;;19.25;65.69;101100.22;5063355;28;19928;-89
2022/08/03 01:07:38;;;;;;;;;;;;;;;19.24;65.55;101095.91;5064611;28;20296;-89
2022/08/03 01:10:22;;;;;;;;;;;;;;;19.21;65.22;101106.59;5062545;28;19921;-89
2022/08/03 01:12:54;;;;;;;;;;;;;;;19.22;65.15;101096.91;5059279;28;20685;-90
2022/08/03 01:15:28;;;;;;;;;;;;;;;19.22;65.25;101097.75;5078083;28;20007;-89
2022/08/03 01:18:13;;;;;;;;;;;;;;;19.19;65.37;101102.34;5065145;28;19959;-89
2022/08/03 01:20:42;;;;;;;;;;;;;;;19.17;65.01;101109.44;5055498;28;19932;-89
2022/08/03 01:23:26;;;;;;;;;;;;;;;19.15;65.01;101106.91;5081299;28;19956;-89
2022/08/03 01:26:10;;;;;;;;;;;;;;;19.16;64.97;101105.13;5065322;28;19924;-89
2022/08/03 01:28:45;;;;;;;;;;;;;;;19.15;65.19;101103.41;5067774;28;19920;-89
2022/08/03 01:31:16;;;;;;;;;;;;;;;19.13;65.52;101100.03;5064022;28;20011;-89
2022/08/03 01:33:45;;;;;;;;;;;;;;;19.10;65.42;101111.56;5066190;28;20020;-89
2022/08/03 01:36:16;;;;;;;;;;;;;;;19.08;65.35;101102.88;5067180;28;19928;-89
2022/08/03 01:38:43;;;;;;;;;;;;;;;19.10;65.31;101110.72;5062635;28;19931;-90
2022/08/03 01:41:14;;;;;;;;;;;;;;;19.11;65.37;101102.72;5065633;28;19931;-89
2022/08/03 01:43:41;;;;;;;;;;;;;;;19.10;65.49;101100.19;5068752;28;19924;-89
2022/08/03 01:46:07;;;;;;;;;;;;;;;19.09;65.57;101101.09;5068479;28;19924;-89
2022/08/03 01:48:35;;;;;;;;;;;;;;;19.05;65.28;101103.03;5068528;28;19960;-89
2022/08/03 01:51:00;;;;;;;;;;;;;;;19.05;65.56;101102.16;5053751;28;19920;-91
2022/08/03 01:53:26;;;;;;;;;;;;;;;19.04;65.38;101100.50;5067152;28;20263;-90
2022/08/03 01:55:53;;;;;;;;;;;;;;;19.02;64.69;101100.53;5070490;28;19977;-91
2022/08/03 01:58:20;;;;;;;;;;;;;;;18.99;64.96;101097.22;5069028;28;19959;-90
2022/08/03 02:00:47;;;;;;;;;;;;;;;18.94;65.21;101097.47;5060736;28;19920;-90
2022/08/03 02:03:14;;;;;;;;;;;;;;;18.97;65.35;101099.09;5080030;28;19916;-90
2022/08/03 02:05:39;;;;;;;;;;;;;;;18.93;65.39;101100.16;5072435;28;19916;-90
2022/08/03 02:08:06;;;;;;;;;;;;;;;18.93;65.15;101097.53;5060266;28;19916;-90
2022/08/03 02:10:32;;;;;;;;;;;;;;;18.91;65.50;101096.75;5056217;28;19921;-90
2022/08/03 02:13:00;;;;;;;;;;;;;;;18.92;65.40;101094.06;5070397;28;20003;-90
2022/08/03 02:15:26;;;;;;;;;;;;;;;18.90;65.24;101092.41;5086243;28;19970;-90
2022/08/03 02:17:52;;;;;;;;;;;;;;;18.93;65.30;101100.16;5069919;28;19916;-90
2022/08/03 02:20:18;;;;;;;;;;;;;;;18.93;65.13;101095.75;5080614;28;20382;-90
2022/08/03 02:22:45;;;;;;;;;;;;;;;18.92;65.21;101099.31;5074107;28;19921;-90
2022/08/03 02:25:11;;;;;;;;;;;;;;;18.91;65.31;101102.88;5084061;28;19924;-91
2022/08/03 02:27:39;;;;;;;;;;;;;;;18.91;65.45;101094.97;5068135;28;20023;-90
2022/08/03 02:30:09;;;;;;;;;;;;;;;18.89;65.68;101088.94;5070910;28;19912;-91
2022/08/03 02:32:36;;;;;;;;;;;;;;;18.90;65.50;101095.91;5072387;28;20346;-90
2022/08/03 02:35:12;;;;;;;;;;;;;;;18.87;65.41;101092.59;5071663;28;20564;-90
2022/08/03 02:37:42;;;;;;;;;;;;;;;18.92;65.62;101088.81;5053737;28;19929;-90
2022/08/03 02:40:09;;;;;;;;;;;;;;;18.87;65.53;101085.53;5070101;28;19920;-90
2022/08/03 02:42:34;;;;;;;;;;;;;;;18.85;65.72;101087.38;5073206;28;19916;-90
2022/08/03 02:45:01;;;;;;;;;;;;;;;18.86;65.21;101083.84;5065803;28;19919;-90
2022/08/03 02:47:28;;;;;;;;;;;;;;;18.85;65.11;101076.88;5086135;28;19924;-90
2022/08/03 02:49:55;;;;;;;;;;;;;;;18.83;65.28;101080.50;5069800;28;19986;-90
2022/08/03 02:52:23;;;;;;;;;;;;;;;18.85;65.38;101076.00;5069707;28;20443;-90
2022/08/03 02:54:51;;;;;;;;;;;;;;;18.82;65.49;101084.06;5073303;28;20382;-90
2022/08/03 02:57:18;;;;;;;;;;;;;;;18.80;65.54;101085.91;5068347;28;19920;-90
2022/08/03 02:59:44;;;;;;;;;;;;;;;18.79;65.29;101082.44;5069208;28;19924;-90
2022/08/03 03:02:11;;;;;;;;;;;;;;;18.79;65.54;101089.47;5075211;28;19922;-90
2022/08/03 03:04:36;;;;;;;;;;;;;;;18.80;65.33;101081.50;5075715;28;19959;-90
2022/08/03 03:07:05;;;;;;;;;;;;;;;18.80;65.12;101081.50;5077694;28;19970;-90
2022/08/03 03:09:31;;;;;;;;;;;;;;;18.76;65.13;101081.72;5080256;28;19916;-90
2022/08/03 03:11:56;;;;;;;;;;;;;;;18.79;65.29;101079.81;5073602;28;19916;-90
2022/08/03 03:14:23;;;;;;;;;;;;;;;18.77;65.18;101088.69;5051628;28;20433;-90
2022/08/03 03:16:50;;;;;;;;;;;;;;;18.73;65.02;101088.00;5068466;28;19986;-90
2022/08/03 03:19:16;;;;;;;;;;;;;;;18.72;65.80;101088.09;5067761;28;19924;-90
2022/08/03 03:21:42;;;;;;;;;;;;;;;18.73;65.46;101087.16;5052306;28;19920;-90
2022/08/03 03:24:08;;;;;;;;;;;;;;;18.76;64.85;101092.25;5071118;28;20382;-90
2022/08/03 03:26:34;;;;;;;;;;;;;;;18.74;64.89;101083.59;5068448;28;19916;-91
2022/08/03 03:29:00;;;;;;;;;;;;;;;18.69;64.43;101087.28;5070329;28;19917;-91
2022/08/03 03:31:25;;;;;;;;;;;;;;;18.71;64.67;101081.97;5087641;28;20264;-90
2022/08/03 03:33:51;;;;;;;;;;;;;;;18.72;64.53;101081.03;5074906;28;20283;-90
2022/08/03 03:36:17;;;;;;;;;;;;;;;18.69;65.06;101086.44;5070040;28;20018;-90
2022/08/03 03:38:42;;;;;;;;;;;;;;;18.70;64.39;101083.75;5091246;28;19915;-90
2022/08/03 03:41:08;;;;;;;;;;;;;;;18.65;64.36;101085.75;5082250;28;20407;-90
2022/08/03 03:43:34;;;;;;;;;;;;;;;18.67;64.45;101083.03;5083122;28;19920;-90
2022/08/03 03:45:59;;;;;;;;;;;;;;;18.69;64.48;101079.41;5070718;28;19923;-90
2022/08/03 03:48:25;;;;;;;;;;;;;;;18.65;64.36;101088.41;5078277;28;19914;-91
2022/08/03 03:50:50;;;;;;;;;;;;;;;18.63;64.26;101079.69;5076286;28;19912;-90
2022/08/03 03:53:16;;;;;;;;;;;;;;;18.63;64.41;101079.69;5089430;28;19917;-90
2022/08/03 03:55:41;;;;;;;;;;;;;;;18.64;64.47;101083.19;5077419;28;19970;-90
2022/08/03 03:58:07;;;;;;;;;;;;;;;18.64;64.41;101081.41;5071673;28;19958;-90
2022/08/03 04:00:32;;;;;;;;;;;;;;;18.68;64.48;101088.25;5071198;28;19925;-90
2022/08/03 04:02:58;;;;;;;;;;;;;;;18.66;64.61;101083.94;5072502;28;19916;-90
2022/08/03 04:11:05;;;;;;;;;;;;;;;18.68;64.59;101090.88;5088083;28;19923;-90
2022/08/03 04:13:43;;;;;;;;;;;;;;;18.68;64.72;101090.03;5087528;28;19923;-90
2022/08/03 04:16:11;;;;;;;;;;;;;;;18.63;65.05;101089.38;5071510;28;19920;-91
2022/08/03 04:18:37;;;;;;;;;;;;;;;18.62;64.96;101083.28;5069969;28;19919;-91
2022/08/03 04:21:04;;;;;;;;;;;;;;;18.62;64.86;101087.69;5070470;28;20393;-90
2022/08/03 04:23:33;;;;;;;;;;;;;;;18.62;64.96;101087.69;5089035;28;19963;-90
2022/08/03 04:26:00;;;;;;;;;;;;;;;18.63;64.91;101086.72;5071089;28;20385;-91
2022/08/03 04:28:26;;;;;;;;;;;;;;;18.63;65.03;101090.22;5070557;28;20344;-90
2022/08/03 04:30:52;;;;;;;;;;;;;;;18.64;65.26;101091.94;5067039;28;19929;-90
2022/08/03 04:33:18;;;;;;;;;;;;;;;18.63;65.40;101086.72;5079499;28;19912;-91
2022/08/03 04:35:45;;;;;;;;;;;;;;;18.67;65.54;101090.94;5086494;28;20409;-90
2022/08/03 04:38:12;;;;;;;;;;;;;;;18.65;65.38;101092.81;5076523;28;19920;-90
2022/08/03 04:40:39;;;;;;;;;;;;;;;18.66;65.54;101097.97;5074966;28;19920;-90
2022/08/03 04:43:05;;;;;;;;;;;;;;;18.63;65.59;101106.00;5067986;28;19930;-90
2022/08/03 04:45:31;;;;;;;;;;;;;;;18.64;65.52;101107.72;5079211;28;20010;-91
2022/08/03 04:47:57;;;;;;;;;;;;;;;18.64;65.61;101105.09;5076600;28;19969;-90
2022/08/03 04:50:22;;;;;;;;;;;;;;;18.66;65.98;101105.88;5087803;28;20613;-90
2022/08/03 04:52:48;;;;;;;;;;;;;;;18.66;65.66;101112.91;5086469;28;19923;-90
2022/08/03 04:55:26;;;;;;;;;;;;;;;18.67;65.59;101112.84;5106024;28;19920;-90
2022/08/03 04:57:55;;;;;;;;;;;;;;;18.68;65.61;101113.69;5093531;28;19958;-90
2022/08/03 05:00:21;;;;;;;;;;;;;;;18.65;65.59;101105.94;5082331;28;19969;-90
2022/08/03 05:02:47;;;;;;;;;;;;;;;18.63;65.81;101111.28;5094298;28;19916;-90
2022/08/03 05:05:12;;;;;;;;;;;;;;;18.66;65.65;101105.88;5076869;28;19973;-91
2022/08/03 05:07:37;;;;;;;;;;;;;;;18.67;66.00;101101.47;5076812;28;19942;-90
2022/08/03 05:10:04;;;;;;;;;;;;;;;18.66;66.08;101105.88;5073744;28;19920;-91
2022/08/03 05:12:29;;;;;;;;;;;;;;;18.69;66.22;101107.50;5103394;28;19911;-90
2022/08/03 05:14:54;;;;;;;;;;;;;;;18.70;66.26;101110.06;5056554;28;19924;-92
2022/08/03 05:17:20;;;;;;;;;;;;;;;18.72;66.59;101106.50;5074487;28;19920;-92
2022/08/03 05:19:45;;;;;;;;;;;;;;;18.72;66.67;101103.88;5071094;28;19920;-89
2022/08/03 05:22:10;;;;;;;;;;;;;;;18.74;66.58;101108.13;5076394;28;19920;-89
2022/08/03 05:24:35;;;;;;;;;;;;;;;18.77;66.45;101109.75;5050591;28;19923;-89
2022/08/03 05:27:01;;;;;;;;;;;;;;;18.77;66.54;101109.75;5068936;28;19972;-89
2022/08/03 05:29:29;;;;;;;;;;;;;;;18.76;66.12;101108.91;5082317;28;19978;-89
2022/08/03 05:31:55;;;;;;;;;;;;;;;18.77;65.75;101113.25;5082112;28;19974;-90
2022/08/03 05:34:20;;;;;;;;;;;;;;;18.83;65.50;101109.47;5073559;28;20385;-89
2022/08/03 05:36:45;;;;;;;;;;;;;;;18.83;65.42;101117.34;5092318;28;19923;-88
2022/08/03 05:39:11;;;;;;;;;;;;;;;18.84;65.52;101116.44;5086412;28;19992;-88
2022/08/03 05:41:36;;;;;;;;;;;;;;;18.85;65.89;101118.13;5070326;28;20728;-88
2022/08/03 05:44:02;;;;;;;;;;;;;;;18.85;65.67;101110.22;5053588;28;20587;-88
2022/08/03 05:46:27;;;;;;;;;;;;;;;18.90;65.36;101111.69;5068377;28;19924;-88
2022/08/03 05:49:13;;;;;;;;;;;;;;;18.91;65.92;101110.78;5066718;28;19943;-92
2022/08/03 05:51:41;;;;;;;;;;;;;;;18.93;65.98;101116.81;5064664;28;20031;-89
2022/08/03 05:54:09;;;;;;;;;;;;;;;18.98;65.77;101116.59;5066803;28;19920;-91
2022/08/03 05:56:39;;;;;;;;;;;;;;;18.97;65.70;101110.47;5068709;28;19960;-91
2022/08/03 05:59:05;;;;;;;;;;;;;;;18.99;65.67;101120.91;5082419;28;19959;-88
2022/08/03 06:01:31;;;;;;;;;;;;;;;19.01;66.20;101127.81;5069440;28;20346;-89
2022/08/03 06:03:57;;;;;;;;;;;;;;;19.04;65.24;101116.28;5091815;28;20317;-95
2022/08/03 06:06:25;;;;;;;;;;;;;;;19.08;65.41;101128.34;5072742;28;20574;-91
2022/08/03 06:09:15;;;;;;;;;;;;;;;19.10;65.24;101121.25;5094334;28;20075;-92
2022/08/03 06:17:46;;;;;;;;;;;;;;;19.16;64.71;101124.41;5025490;23;20016;-79
2022/08/03 06:20:11;;;;;;;;;;;;;;;19.18;65.07;101122.56;5022898;28;19925;-79
2022/08/03 06:22:36;;;;;;;;;;;;;;;19.21;64.49;101125.03;5030775;28;19927;-79
2022/08/03 06:25:02;;;;;;;;;;;;;;;19.21;65.35;101130.31;5024722;28;19928;-79
2022/08/03 06:27:27;;;;;;;;;;;;;;;19.21;65.60;101127.66;5016696;28;19927;-79
2022/08/03 06:29:53;;;;;;;;;;;;;;;19.24;64.66;101130.16;5021873;28;19922;-79
2022/08/03 06:32:21;;;;;;;;;;;;;;;19.24;65.32;101127.50;5021694;28;19923;-79
2022/08/03 06:34:47;;;;;;;;;;;;;;;19.28;65.25;101133.50;5026699;28;19921;-79
2022/08/03 06:37:12;;;;;;;;;;;;;;;19.33;64.34;101123.59;5005644;28;19926;-79
2022/08/03 06:39:37;;;;;;;;;;;;;;;19.33;64.37;101134.13;5019100;28;19956;-79
2022/08/03 06:42:03;;;;;;;;;;;;;;;19.37;64.00;101121.66;5021400;28;20005;-79
2022/08/03 06:44:29;;;;;;;;;;;;;;;19.38;64.05;101125.97;5040317;28;19925;-79
2022/08/03 06:46:54;;;;;;;;;;;;;;;19.43;63.70;101130.06;5016998;28;20020;-79
2022/08/03 06:49:19;;;;;;;;;;;;;;;19.42;63.74;101124.88;5015132;28;20406;-79
2022/08/03 06:51:45;;;;;;;;;;;;;;;19.45;63.44;101130.00;5020572;28;19925;-79
2022/08/03 06:54:11;;;;;;;;;;;;;;;19.44;63.47;101129.13;5032131;28;19917;-79
2022/08/03 06:56:36;;;;;;;;;;;;;;;19.44;63.77;101128.28;5031955;28;19932;-79
2022/08/03 06:59:02;;;;;;;;;;;;;;;19.45;63.82;101125.59;5038499;28;19924;-79
2022/08/03 07:01:27;;;;;;;;;;;;;;;19.46;63.74;101123.81;4999535;28;19932;-79
2022/08/03 07:03:53;;;;;;;;;;;;;;;19.50;63.29;101120.91;5003005;28;19967;-79
2022/08/03 07:06:19;;;;;;;;;;;;;;;19.52;63.27;101126.94;5015717;28;20556;-79
2022/08/03 07:08:44;;;;;;;;;;;;;;;19.52;63.38;101123.50;5014178;28;19924;-79
2022/08/03 07:11:09;;;;;;;;;;;;;;;19.52;63.38;101124.31;5018768;28;19978;-79
2022/08/03 07:13:35;;;;;;;;;;;;;;;19.52;63.63;101126.13;5007405;28;19928;-79
2022/08/03 07:16:00;;;;;;;;;;;;;;;19.52;63.44;101128.75;5017556;28;19929;-79
2022/08/03 07:18:26;;;;;;;;;;;;;;;19.53;63.64;101118.13;5007639;28;19921;-79
2022/08/03 07:20:51;;;;;;;;;;;;;;;19.53;63.75;101130.44;5018550;28;19924;-79
2022/08/03 07:23:16;;;;;;;;;;;;;;;19.55;63.73;101131.22;5016713;28;20535;-79
2022/08/03 07:25:42;;;;;;;;;;;;;;;19.54;64.05;101133.00;5023275;28;19921;-78
2022/08/03 07:28:07;;;;;;;;;;;;;;;19.57;63.73;101134.63;5019659;28;19925;-79
2022/08/03 07:30:32;;;;;;;;;;;;;;;19.57;63.60;101129.34;5012258;28;19917;-79
2022/08/03 07:32:58;;;;;;;;;;;;;;;19.50;64.15;101135.88;4999144;28;19917;-79
2022/08/03 07:35:23;;;;;;;;;;;;;;;19.54;63.97;101137.44;5032096;28;20409;-79
2022/08/03 07:37:48;;;;;;;;;;;;;;;19.55;64.02;101145.22;5020419;28;19924;-78
2022/08/03 07:40:14;;;;;;;;;;;;;;;19.58;64.17;101133.72;5011407;28;19931;-79
2022/08/03 07:42:39;;;;;;;;;;;;;;;19.65;63.60;101130.66;5013054;28;19967;-78
2022/08/03 07:45:05;;;;;;;;;;;;;;;19.59;63.55;101125.69;5029867;28;19949;-79
2022/08/03 07:47:30;;;;;;;;;;;;;;;19.61;64.09;101126.47;5020694;28;19962;-79
2022/08/03 07:49:56;;;;;;;;;;;;;;;19.58;64.50;101129.25;5010866;28;19970;-79
2022/08/03 07:55:09;;;;;;;;;;;;;;;19.62;64.32;101133.44;5020215;28;19990;-79
2022/08/03 07:57:34;;;;;;;;;;;;;;;19.73;63.87;101131.09;5030299;28;20008;-79
2022/08/03 08:00:06;;;;;;;;;;;;;;;19.65;63.87;101129.78;5020653;28;20497;-79
2022/08/03 08:02:31;;;;;;;;;;;;;;;19.67;63.57;101122.66;5025381;28;19924;-79
2022/08/03 08:04:56;;;;;;;;;;;;;;;19.64;64.04;101122.84;5000632;28;20339;-79
2022/08/03 08:07:24;;;;;;;;;;;;;;;19.64;64.70;101125.47;5014765;28;19936;-79
2022/08/03 08:09:50;;;;;;;;;;;;;;;19.61;64.16;101117.72;5011473;28;20376;-79
2022/08/03 08:12:15;;;;;;;;;;;;;;;19.61;63.79;101121.19;4986513;28;20008;-79
2022/08/03 08:14:41;;;;;;;;;;;;;;;19.68;64.01;101119.94;5013513;28;20255;-79
2022/08/03 08:17:06;;;;;;;;;;;;;;;19.67;64.05;101115.59;5027062;28;19932;-78
2022/08/03 08:19:32;;;;;;;;;;;;;;;19.67;64.50;101110.31;5036141;28;19917;-78
2022/08/03 08:21:57;;;;;;;;;;;;;;;19.63;63.63;101108.81;5031205;28;19925;-79
2022/08/03 08:24:22;;;;;;;;;;;;;;;19.62;64.18;101109.72;5027015;28;19917;-79
2022/08/03 08:26:48;;;;;;;;;;;;;;;19.64;65.00;101107.84;5032454;28;19924;-79
2022/08/03 08:29:13;;;;;;;;;;;;;;;19.63;65.07;101106.19;5057253;28;19917;-79
2022/08/03 08:31:38;;;;;;;;;;;;;;;19.63;64.66;101111.44;5029787;28;19940;-79
2022/08/03 08:34:06;;;;;;;;;;;;;;;19.64;65.50;101112.31;5045680;28;19970;-79
2022/08/03 08:36:32;;;;;;;;;;;;;;;19.61;64.69;101105.38;5023279;28;20364;-79
2022/08/03 08:38:58;;;;;;;;;;;;;;;19.63;65.43;101108.81;5014738;28;20016;-79
2022/08/03 08:41:23;;;;;;;;;;;;;;;19.60;63.98;101103.69;5030660;28;19956;-79
2022/08/03 08:43:48;;;;;;;;;;;;;;;19.63;64.02;101100.91;5048230;28;19979;-78
2022/08/03 08:46:14;;;;;;;;;;;;;;;19.64;64.60;101104.41;5051953;28;19916;-79
2022/08/03 08:48:40;;;;;;;;;;;;;;;19.61;63.56;101104.56;5037976;28;19921;-78
2022/08/03 08:51:07;;;;;;;;;;;;;;;19.61;63.48;101109.81;5033641;28;19927;-78
2022/08/03 08:53:34;;;;;;;;;;;;;;;19.57;63.66;101110.91;5032900;28;19944;-79
2022/08/03 08:56:01;;;;;;;;;;;;;;;19.90;61.78;101100.34;5035447;28;19927;-79
2022/08/03 08:58:31;;;;;;;;;;;;;;;19.68;63.47;101106.78;5031641;28;19960;-79
2022/08/03 09:00:56;;;;;;;;;;;;;;;19.62;63.36;101109.72;5046829;28;19916;-79
2022/08/03 09:03:22;;;;;;;;;;;;;;;19.66;63.49;101106.00;5047198;28;20357;-79
2022/08/03 09:05:47;;;;;;;;;;;;;;;19.78;62.88;101104.50;5006662;28;19921;-79
2022/08/03 09:08:13;;;;;;;;;;;;;;;19.77;62.59;101102.78;5026336;28;19921;-79
2022/08/03 09:10:38;;;;;;;;;;;;;;;19.78;62.37;101102.72;5016056;28;20410;-79
2022/08/03 09:13:03;;;;;;;;;;;;;;;19.81;62.33;101099.06;5028657;28;19917;-78
2022/08/03 09:15:30;;;;;;;;;;;;;;;19.89;62.05;101098.63;5012183;28;19921;-79
2022/08/03 09:17:56;;;;;;;;;;;;;;;20.11;60.44;101096.56;5023903;28;19921;-79
2022/08/03 09:20:22;;;;;;;;;;;;;;;20.04;60.61;101098.66;5050913;28;19925;-79
2022/08/03 09:22:55;;;;;;;;;;;;;;;19.93;60.99;101097.53;5048825;28;19917;-78
2022/08/03 09:25:26;;;;;;;;;;;;;;;19.81;63.24;101096.44;5040430;28;20003;-79
2022/08/03 09:27:51;;;;;;;;;;;;;;;19.86;62.24;101089.09;5052340;28;19921;-79
2022/08/03 09:30:17;;;;;;;;;;;;;;;19.87;62.65;101093.47;5051054;28;19917;-79
2022/08/03 09:32:44;;;;;;;;;;;;;;;20.57;59.11;101084.25;5049493;28;20317;-79
2022/08/03 09:35:11;;;;;;;;;;;;;;;20.37;59.74;101081.91;5050912;28;19959;-78
2022/08/03 09:37:36;;;;;;;;;;;;;;;20.05;62.80;101092.47;5052889;28;19924;-78
2022/08/03 09:40:02;;;;;;;;;;;;;;;20.10;60.91;101090.44;5038596;28;19931;-79
2022/08/03 09:42:27;;;;;;;;;;;;;;;20.00;63.32;101085.72;5055894;28;20003;-79
2022/08/03 09:44:53;;;;;;;;;;;;;;;19.90;64.48;101085.38;5056612;28;19999;-79
2022/08/03 09:47:29;;;;;;;;;;;;;;;19.92;64.55;101088.78;5046514;28;19941;-79
2022/08/03 09:50:00;;;;;;;;;;;;;;;20.09;61.40;101077.31;5022724;28;21132;-79
2022/08/03 09:52:34;;;;;;;;;;;;;;;19.85;65.25;101090.03;5039907;28;19960;-79
2022/08/03 09:55:01;;;;;;;;;;;;;;;19.86;65.17;101085.63;5042701;28;20288;-79
2022/08/03 09:57:27;;;;;;;;;;;;;;;20.00;62.40;101080.44;5037958;28;20020;-79
2022/08/03 10:00:04;;;;;;;;;;;;;;;20.02;60.70;101079.44;5049578;28;19960;-79
2022/08/03 10:02:30;;;;;;;;;;;;;;;20.47;58.15;101070.72;5050475;28;20548;-79
2022/08/03 10:04:55;;;;;;;;;;;;;;;20.12;61.42;101085.91;5050819;28;19921;-79
2022/08/03 10:07:21;;;;;;;;;;;;;;;20.70;58.19;101080.00;5034783;28;19927;-79
2022/08/03 10:09:56;;;;;;;;;;;;;;;20.42;59.15;101079.84;5034490;28;19920;-79
2022/08/03 10:12:22;;;;;;;;;;;;;;;20.15;62.01;101080.47;5052047;28;20397;-79
2022/08/03 10:14:48;;;;;;;;;;;;;;;20.29;59.99;101070.00;5038776;28;19917;-79
2022/08/03 10:17:13;;;;;;;;;;;;;;;20.32;60.38;101077.75;5053896;28;19948;-79
2022/08/03 10:19:42;;;;;;;;;;;;;;;20.10;62.37;101077.25;5035530;28;19940;-79
2022/08/03 10:22:16;;;;;;;;;;;;;;;19.98;63.40;101071.75;5066099;28;19916;-79
2022/08/03 10:24:51;;;;;;;;;;;;;;;20.82;57.67;101071.34;5065861;28;19976;-79
2022/08/03 10:27:18;;;;;;;;;;;;;;;20.93;56.61;101063.69;5057240;28;19916;-79
2022/08/03 10:29:44;;;;;;;;;;;;;;;20.93;56.47;101063.69;5042431;28;19925;-79
2022/08/03 10:32:14;;;;;;;;;;;;;;;20.38;60.61;101055.47;5068000;28;19955;-79
2022/08/03 10:34:41;;;;;;;;;;;;;;;20.86;56.60;101049.13;5053640;28;19962;-79
2022/08/03 10:37:09;;;;;;;;;;;;;;;20.96;56.40;101047.66;5049931;28;19920;-79
2022/08/03 10:39:34;;;;;;;;;;;;;;;20.88;56.54;101040.19;5035336;28;20274;-78
2022/08/03 10:42:00;;;;;;;;;;;;;;;21.16;55.09;101039.38;5029826;28;19932;-79
2022/08/03 10:44:29;;;;;;;;;;;;;;;20.75;58.46;101040.97;5059631;28;19917;-79
2022/08/03 10:46:55;;;;;;;;;;;;;;;20.34;61.13;101036.31;5049602;28;19929;-79
2022/08/03 10:49:21;;;;;;;;;;;;;;;21.01;55.75;101024.44;5051269;28;19920;-79
2022/08/03 10:51:47;;;;;;;;;;;;;;;20.68;59.45;101036.97;5065368;28;19920;-79
2022/08/03 10:54:31;;;;;;;;;;;;;;;20.31;61.28;101030.34;5032385;28;19928;-78
2022/08/03 10:59:49;;;;;;;;;;;;;;;20.79;57.32;101026.66;5041694;28;20426;-79
2022/08/03 11:02:15;;;;;;;;;;;;;;;20.38;59.15;101018.53;5029718;28;19982;-79
2022/08/03 11:04:41;;;;;;;;;;;;;;;20.90;56.03;101011.03;5015818;28;19921;-79
2022/08/03 11:07:16;;;;;;;;;;;;;;;21.32;53.68;101010.22;5024372;28;19924;-79
2022/08/03 11:09:42;;;;;;;;;;;;;;;20.94;55.76;101006.44;4996010;28;19917;-79
2022/08/03 11:12:26;;;;;;;;;;;;;;;20.43;60.61;101008.53;5027217;28;19913;-79
2022/08/03 11:14:52;;;;;;;;;;;;;;;21.26;54.00;101000.88;5015960;28;19963;-78
2022/08/03 11:17:18;;;;;;;;;;;;;;;21.26;55.54;101002.69;5031085;28;19960;-78
2022/08/03 11:19:44;;;;;;;;;;;;;;;21.68;52.57;101000.03;5030071;28;20361;-79
2022/08/03 11:22:10;;;;;;;;;;;;;;;20.66;59.10;101010.69;5026568;28;20314;-79
2022/08/03 11:24:35;;;;;;;;;;;;;;;20.42;60.31;101003.34;5016471;28;19924;-79
2022/08/03 11:27:20;;;;;;;;;;;;;;;21.36;52.94;100987.97;5023984;28;19963;-79
2022/08/03 11:29:56;;;;;;;;;;;;;;;21.56;51.66;100992.00;5027314;28;19921;-79
2022/08/03 11:32:36;;;;;;;;;;;;;;;21.32;54.31;100997.88;5028514;28;19975;-79
2022/08/03 11:35:18;;;;;;;;;;;;;;;21.58;52.34;100990.09;5009641;28;19917;-79
2022/08/03 11:38:03;;;;;;;;;;;;;;;21.09;55.86;100994.94;5024840;28;19929;-79
2022/08/03 11:40:43;;;;;;;;;;;;;;;21.19;54.10;100990.78;5009590;28;19917;-79
2022/08/03 11:43:20;;;;;;;;;;;;;;;20.58;59.71;101005.00;5039641;28;19917;-78
2022/08/03 11:45:55;;;;;;;;;;;;;;;20.53;59.99;101007.03;5028459;28;19932;-79
2022/08/03 11:48:21;;;;;;;;;;;;;;;20.45;60.10;100998.72;5044066;28;19917;-79
2022/08/03 11:50:47;;;;;;;;;;;;;;;20.43;60.21;101002.41;5033281;28;20033;-79
2022/08/03 11:53:13;;;;;;;;;;;;;;;20.55;58.86;100997.28;5035386;28;19924;-79
2022/08/03 11:55:40;;;;;;;;;;;;;;;20.54;60.07;100995.56;5031871;28;19925;-79
2022/08/03 11:58:06;;;;;;;;;;;;;;;20.73;54.75;100993.53;5034137;28;19940;-79
2022/08/03 12:00:32;;;;;;;;;;;;;;;20.78;56.15;100990.63;5002360;28;20441;-79
2022/08/03 12:02:59;;;;;;;;;;;;;;;20.28;61.30;100996.22;5029652;28;19971;-78
2022/08/03 12:05:34;;;;;;;;;;;;;;;20.20;61.37;100996.66;5033728;28;19952;-78
2022/08/03 12:07:59;;;;;;;;;;;;;;;20.11;62.11;100993.72;5044907;28;19959;-78
2022/08/03 12:10:28;;;;;;;;;;;;;;;20.09;62.06;100992.94;5046655;28;19998;-79
2022/08/03 12:12:57;;;;;;;;;;;;;;;20.14;61.99;100985.63;5026551;28;19964;-79
2022/08/03 12:15:30;;;;;;;;;;;;;;;20.38;60.72;100984.22;5020350;28;20447;-78
2022/08/03 12:17:56;;;;;;;;;;;;;;;20.14;62.19;100980.34;5014116;28;20000;-78
2022/08/03 12:20:23;;;;;;;;;;;;;;;20.17;62.10;100980.19;5014219;28;19929;-78
2022/08/03 12:22:49;;;;;;;;;;;;;;;20.14;62.13;100977.72;5032617;28;20012;-78
2022/08/03 12:25:25;;;;;;;;;;;;;;;20.06;62.42;100970.19;5049243;28;20007;-78
2022/08/03 12:27:51;;;;;;;;;;;;;;;20.06;62.50;100974.59;5014355;28;19924;-78
2022/08/03 12:30:17;;;;;;;;;;;;;;;20.12;62.30;100974.28;5035428;28;19923;-78
2022/08/03 12:32:42;;;;;;;;;;;;;;;20.47;58.49;100967.00;5050495;28;19996;-78
2022/08/03 12:35:08;;;;;;;;;;;;;;;20.30;61.26;100976.72;5050220;28;19916;-78
2022/08/03 12:37:34;;;;;;;;;;;;;;;20.25;61.81;100968.25;5018784;28;19940;-79
2022/08/03 12:40:03;;;;;;;;;;;;;;;20.49;59.91;100959.81;5031295;28;19921;-79
2022/08/03 12:42:37;;;;;;;;;;;;;;;21.47;52.52;100964.34;5051707;28;19966;-78
2022/08/03 12:45:19;;;;;;;;;;;;;;;21.09;57.54;100964.09;5042034;28;19917;-78
2022/08/03 12:47:54;;;;;;;;;;;;;;;21.13;53.71;100962.94;5040493;28;19920;-78
2022/08/03 12:50:39;;;;;;;;;;;;;;;21.06;53.97;100955.50;5049020;28;19924;-78
2022/08/03 12:53:06;;;;;;;;;;;;;;;21.91;51.12;100956.25;5047086;28;20502;-78
2022/08/03 12:55:34;;;;;;;;;;;;;;;22.91;47.67;100958.25;5024384;28;19921;-77